Time;durP1;ratioP1;P1;durP2;ratioP2;P2;SDS_P1;SDS_P2;PMS_P1;PMS_P2;Temp;Humidity;BMP_temperature;BMP_pressure;BME280_temperature;BME280_humidity;BME280_pressure;Samples;Min_cycle;Max_cycle;Signal;HPM_P1;HPM_P2
2022/05/05 00:00:26;;;;;;;9.93;3.17;;;;;11.20;101374.00;;;;4901823;29;20603;-68
2022/05/05 00:06:34;;;;;;;7.07;2.80;;;;;11.20;101377.00;;;;5397518;23;20300;-71
2022/05/05 00:09:20;;;;;;;4.70;2.77;;;;;11.20;101371.00;;;;4950777;28;20239;-71
2022/05/05 00:15:13;;;;;;;3.77;2.53;;;;;11.20;101373.00;;;;4940551;28;20247;-71
2022/05/05 00:17:59;;;;;;;7.50;3.00;;;;;11.30;101372.00;;;;4946834;28;20240;-71
2022/05/05 00:20:46;;;;;;;4.40;2.90;;;;;11.10;101374.00;;;;4940460;28;20768;-71
2022/05/05 00:23:32;;;;;;;5.23;2.57;;;;;11.20;101371.00;;;;4947829;28;20236;-71
2022/05/05 00:26:18;;;;;;;5.50;2.70;;;;;11.20;101374.00;;;;4946107;28;20232;-72
2022/05/05 00:29:06;;;;;;;4.73;2.80;;;;;11.30;101372.00;;;;4946829;28;20612;-71
2022/05/05 00:31:52;;;;;;;4.40;2.80;;;;;11.40;101371.00;;;;4933190;28;20239;-71
2022/05/05 00:34:38;;;;;;;8.73;2.93;;;;;11.30;101380.00;;;;4929107;28;20651;-70
2022/05/05 00:37:24;;;;;;;3.50;2.37;;;;;11.30;101374.00;;;;4936984;28;20248;-69
2022/05/05 00:40:12;;;;;;;4.87;2.70;;;;;11.20;101378.00;;;;4947666;28;20239;-71
2022/05/05 00:42:59;;;;;;;6.53;3.00;;;;;11.20;101374.00;;;;4946470;28;20369;-72
2022/05/05 00:45:46;;;;;;;3.83;3.03;;;;;11.20;101371.00;;;;4938020;28;20258;-71
2022/05/05 00:48:33;;;;;;;6.80;2.80;;;;;11.20;101378.00;;;;4944649;28;20705;-71
2022/05/05 00:51:19;;;;;;;6.53;3.03;;;;;11.20;101371.00;;;;4942272;28;20252;-72
2022/05/05 00:54:05;;;;;;;4.27;2.63;;;;;11.10;101375.00;;;;4946682;28;20240;-74
2022/05/05 00:56:52;;;;;;;4.53;2.67;;;;;11.10;101373.00;;;;4941314;28;20587;-69
2022/05/05 00:59:40;;;;;;;6.87;2.97;;;;;11.10;101376.00;;;;4946311;28;20220;-71
2022/05/05 01:02:28;;;;;;;5.67;2.57;;;;;11.10;101379.00;;;;4946182;28;20609;-71
2022/05/05 01:05:15;;;;;;;7.20;3.30;;;;;11.10;101382.00;;;;4949815;28;20736;-71
2022/05/05 01:08:02;;;;;;;4.53;2.90;;;;;11.00;101379.00;;;;4944272;28;20265;-71
2022/05/05 01:10:49;;;;;;;6.80;2.70;;;;;10.80;101380.00;;;;4936260;28;20244;-73
2022/05/05 01:13:38;;;;;;;6.20;2.97;;;;;10.70;101376.00;;;;4944619;28;20235;-71
2022/05/05 01:16:24;;;;;;;4.80;2.90;;;;;10.60;101368.00;;;;4950094;28;20608;-71
2022/05/05 01:19:12;;;;;;;4.43;2.90;;;;;10.60;101370.00;;;;4949425;28;20380;-71
2022/05/05 01:21:59;;;;;;;4.63;2.27;;;;;10.60;101380.00;;;;4944724;28;20244;-71
2022/05/05 01:28:14;;;;;;;4.43;2.53;;;;;10.50;101382.00;;;;4948461;28;20380;-71
2022/05/05 01:31:02;;;;;;;4.40;2.70;;;;;10.40;101383.00;;;;4949125;28;20795;-70
2022/05/05 01:33:48;;;;;;;7.60;3.70;;;;;10.20;101379.00;;;;4937918;28;20753;-71
2022/05/05 01:36:34;;;;;;;5.40;3.37;;;;;10.10;101377.00;;;;4934959;28;20239;-71
2022/05/05 01:39:22;;;;;;;6.00;2.83;;;;;10.10;101377.00;;;;4949122;28;20740;-71
2022/05/05 01:42:08;;;;;;;6.20;2.97;;;;;10.00;101381.00;;;;4949080;28;20307;-72
2022/05/05 01:44:54;;;;;;;6.17;3.20;;;;;9.80;101378.00;;;;4948561;28;20728;-71
2022/05/05 01:47:41;;;;;;;7.53;3.30;;;;;9.80;101379.00;;;;4942074;28;20230;-71
2022/05/05 01:50:29;;;;;;;6.47;3.27;;;;;9.60;101378.00;;;;4948659;28;20761;-71
2022/05/05 01:53:15;;;;;;;8.07;3.27;;;;;9.60;101390.00;;;;4948802;28;20231;-71
2022/05/05 01:56:05;;;;;;;4.43;2.97;;;;;9.60;101393.00;;;;4944457;28;20636;-71
2022/05/05 01:58:51;;;;;;;5.17;2.83;;;;;9.50;101386.00;;;;4935587;28;20310;-71
2022/05/05 02:01:38;;;;;;;7.37;2.80;;;;;9.50;101380.00;;;;4941317;28;20238;-70
2022/05/05 02:04:24;;;;;;;5.83;3.10;;;;;9.40;101384.00;;;;4948196;28;20280;-71
2022/05/05 02:07:10;;;;;;;7.63;3.10;;;;;9.40;101392.00;;;;4948411;28;20249;-71
2022/05/05 02:09:56;;;;;;;5.17;3.03;;;;;9.30;101401.00;;;;4943544;28;20237;-71
2022/05/05 02:12:45;;;;;;;5.40;3.20;;;;;9.30;101368.00;;;;4941933;28;20274;-71
2022/05/05 02:15:32;;;;;;;8.17;2.97;;;;;9.10;101399.00;;;;4953217;28;20314;-72
2022/05/05 02:18:18;;;;;;;4.97;3.00;;;;;9.30;101399.00;;;;4948305;28;20643;-70
2022/05/05 02:21:05;;;;;;;8.60;3.40;;;;;9.20;101386.00;;;;4948738;28;20240;-71
2022/05/05 02:23:51;;;;;;;4.20;3.17;;;;;9.10;101392.00;;;;4931460;28;20305;-72
2022/05/05 02:26:38;;;;;;;5.00;3.07;;;;;9.00;101395.00;;;;4942927;28;20231;-70
2022/05/05 02:29:25;;;;;;;5.23;3.20;;;;;8.90;101395.00;;;;4947491;28;20364;-71
2022/05/05 02:32:11;;;;;;;5.07;3.00;;;;;8.90;101400.00;;;;4948213;28;20611;-71
2022/05/05 02:34:58;;;;;;;5.70;3.40;;;;;8.80;101400.00;;;;4945095;28;20314;-69
2022/05/05 02:40:49;;;;;;;8.90;3.43;;;;;8.90;101402.00;;;;4947872;28;20241;-71
2022/05/05 02:43:35;;;;;;;7.30;3.53;;;;;8.80;101400.00;;;;4945643;28;20233;-72
2022/05/05 02:46:23;;;;;;;6.17;3.17;;;;;8.80;101403.00;;;;4941875;28;20608;-72
2022/05/05 02:49:09;;;;;;;6.93;3.50;;;;;8.70;101398.00;;;;4947912;28;20320;-72
2022/05/05 02:51:55;;;;;;;7.57;3.80;;;;;8.60;101388.00;;;;4945048;28;20660;-71
2022/05/05 02:54:50;;;;;;;6.40;3.47;;;;;8.60;101399.00;;;;4936256;28;20232;-71
2022/05/05 02:57:37;;;;;;;6.80;3.60;;;;;8.50;101397.00;;;;4932123;28;20256;-72
2022/05/05 03:00:23;;;;;;;8.70;4.03;;;;;8.40;101396.00;;;;4947415;28;20231;-71
2022/05/05 03:03:11;;;;;;;7.20;3.30;;;;;8.50;101395.00;;;;4947865;28;20300;-72
2022/05/05 03:05:57;;;;;;;4.97;3.27;;;;;8.50;101400.00;;;;4944790;28;20285;-72
2022/05/05 03:08:44;;;;;;;5.97;3.63;;;;;8.50;101401.00;;;;4941262;28;20286;-70
2022/05/05 03:11:31;;;;;;;5.77;3.80;;;;;8.60;101403.00;;;;4947392;28;20288;-70
2022/05/05 03:14:17;;;;;;;6.20;3.67;;;;;8.50;101401.00;;;;4947632;28;20239;-68
2022/05/05 03:17:03;;;;;;;5.93;3.93;;;;;8.50;101406.00;;;;4947361;28;20285;-69
2022/05/05 03:19:51;;;;;;;11.37;3.80;;;;;8.50;101408.00;;;;4946751;28;20789;-71
2022/05/05 03:22:37;;;;;;;8.90;3.93;;;;;8.50;101399.00;;;;4939945;28;20365;-70
2022/05/05 03:25:24;;;;;;;7.20;3.80;;;;;8.50;101408.00;;;;4939231;28;20325;-70
2022/05/05 03:28:10;;;;;;;7.10;3.70;;;;;8.40;101415.00;;;;4947699;28;20788;-70
2022/05/05 03:30:56;;;;;;;8.27;3.70;;;;;8.40;101407.00;;;;4942526;28;20312;-70
2022/05/05 03:33:42;;;;;;;8.23;3.50;;;;;8.30;101415.00;;;;4940230;28;20236;-70
2022/05/05 03:36:30;;;;;;;7.70;3.80;;;;;8.40;101413.00;;;;4946851;28;20236;-70
2022/05/05 03:39:16;;;;;;;7.03;4.13;;;;;8.40;101411.00;;;;4946543;28;20235;-72
2022/05/05 03:42:02;;;;;;;9.80;3.00;;;;;8.30;101409.00;;;;4942993;28;20229;-71
2022/05/05 03:44:48;;;;;;;9.70;3.87;;;;;8.30;101415.00;;;;4932690;28;20239;-72
2022/05/05 03:47:34;;;;;;;8.13;4.23;;;;;8.30;101419.00;;;;4946608;28;20235;-70
2022/05/05 03:50:21;;;;;;;9.90;3.80;;;;;8.30;101420.00;;;;4945620;28;20235;-71
2022/05/05 03:53:08;;;;;;;7.43;3.63;;;;;8.20;101418.00;;;;4945678;28;20240;-71
2022/05/05 03:55:55;;;;;;;9.63;3.90;;;;;8.20;101421.00;;;;4941455;28;20234;-71
2022/05/05 03:58:41;;;;;;;20.43;4.30;;;;;8.20;101416.00;;;;4935877;28;20581;-70
2022/05/05 04:01:27;;;;;;;8.03;3.63;;;;;8.20;101415.00;;;;4937696;28;20780;-71
2022/05/05 04:04:13;;;;;;;6.93;4.03;;;;;8.20;101421.00;;;;4944019;28;20291;-71
2022/05/05 04:07:00;;;;;;;6.23;3.47;;;;;8.10;101430.00;;;;4938967;28;20375;-72
2022/05/05 04:09:48;;;;;;;6.83;4.13;;;;;8.10;101420.00;;;;4940495;28;20235;-71
2022/05/05 04:12:34;;;;;;;9.07;4.83;;;;;8.00;101432.00;;;;4946619;28;20228;-67
2022/05/05 04:15:20;;;;;;;9.07;3.57;;;;;8.10;101430.00;;;;4937071;28;20388;-71
2022/05/05 04:18:07;;;;;;;14.53;4.27;;;;;8.10;101434.00;;;;4942138;28;20363;-71
2022/05/05 04:20:53;;;;;;;10.03;3.90;;;;;8.20;101433.00;;;;4941722;28;20611;-70
2022/05/05 04:23:40;;;;;;;12.20;4.30;;;;;8.10;101436.00;;;;4939360;28;20228;-70
2022/05/05 04:26:30;;;;;;;8.30;3.40;;;;;8.00;101446.00;;;;4943698;28;20236;-70
2022/05/05 04:29:16;;;;;;;10.20;3.80;;;;;8.10;101438.00;;;;4946273;28;20289;-70
2022/05/05 04:32:03;;;;;;;9.73;4.37;;;;;8.10;101440.00;;;;4946841;28;20232;-70
2022/05/05 04:34:49;;;;;;;6.20;4.07;;;;;8.00;101450.00;;;;4941249;28;20236;-70
2022/05/05 04:37:40;;;;;;;5.97;4.07;;;;;8.00;101445.00;;;;4939214;28;20283;-70
2022/05/05 04:40:27;;;;;;;6.60;4.03;;;;;8.10;101451.00;;;;4950125;28;20660;-70
2022/05/05 04:43:14;;;;;;;8.07;3.90;;;;;8.00;101452.00;;;;4950212;28;20244;-70
2022/05/05 04:46:01;;;;;;;6.97;3.67;;;;;8.20;101458.00;;;;4950214;28;20614;-70
2022/05/05 04:48:48;;;;;;;10.00;4.57;;;;;8.20;101450.00;;;;4943934;28;20267;-72
2022/05/05 04:51:34;;;;;;;8.47;4.53;;;;;8.30;101452.00;;;;4941893;28;20248;-71
2022/05/05 04:54:20;;;;;;;7.57;4.20;;;;;8.30;101456.00;;;;4949773;28;20605;-71
2022/05/05 04:57:07;;;;;;;6.43;4.07;;;;;8.40;101458.00;;;;4944448;28;20726;-71
2022/05/05 04:59:55;;;;;;;7.97;3.90;;;;;8.50;101465.00;;;;4944415;28;20244;-70
2022/05/05 05:02:41;;;;;;;15.23;4.10;;;;;8.60;101472.00;;;;4940672;28;20228;-70
2022/05/05 05:05:28;;;;;;;7.67;3.97;;;;;8.60;101470.00;;;;4948182;28;20315;-70
2022/05/05 05:08:14;;;;;;;8.00;4.33;;;;;8.60;101486.00;;;;4949598;28;20287;-70
2022/05/05 05:11:00;;;;;;;9.63;4.60;;;;;8.60;101475.00;;;;4949832;28;20364;-70
2022/05/05 05:13:46;;;;;;;8.57;4.30;;;;;8.60;101474.00;;;;4943170;28;20237;-71
2022/05/05 05:16:34;;;;;;;12.33;4.10;;;;;8.80;101485.00;;;;4948834;28;20981;-70
2022/05/05 05:19:28;;;;;;;11.10;4.80;;;;;8.90;101489.00;;;;4947040;28;20243;-70
2022/05/05 05:22:14;;;;;;;8.67;4.70;;;;;9.00;101489.00;;;;4941328;28;20326;-70
2022/05/05 05:25:00;;;;;;;12.23;4.70;;;;;9.10;101488.00;;;;4949354;28;20241;-70
2022/05/05 05:27:47;;;;;;;9.87;4.10;;;;;9.20;101493.00;;;;4942829;28;20235;-70
2022/05/05 05:30:54;;;;;;;8.73;3.97;;;;;9.30;101500.00;;;;4957824;28;20287;-67
2022/05/05 05:33:42;;;;;;;7.43;3.97;;;;;9.40;101494.00;;;;4960835;28;20276;-70
2022/05/05 05:36:28;;;;;;;7.63;3.97;;;;;9.40;101502.00;;;;4946527;28;20348;-69
2022/05/05 05:39:14;;;;;;;11.90;4.50;;;;;9.50;101505.00;;;;4948578;28;20802;-70
2022/05/05 05:42:00;;;;;;;9.17;3.90;;;;;9.60;101501.00;;;;4943090;28;20318;-68
2022/05/05 05:44:47;;;;;;;10.73;4.90;;;;;9.70;101507.00;;;;4942720;28;20603;-70
2022/05/05 05:47:33;;;;;;;9.00;5.37;;;;;9.80;101507.00;;;;4949101;28;20841;-69
2022/05/05 05:50:21;;;;;;;10.57;5.47;;;;;9.90;101508.00;;;;4949217;28;20231;-70
2022/05/05 05:53:08;;;;;;;7.57;4.57;;;;;10.00;101512.00;;;;4949483;28;20314;-69
2022/05/05 05:55:54;;;;;;;11.17;5.33;;;;;10.10;101500.00;;;;4943397;28;20275;-70
2022/05/05 05:58:40;;;;;;;12.57;5.50;;;;;10.20;101507.00;;;;4941846;28;20916;-70
2022/05/05 06:03:53;;;;;;;11.93;5.37;;;;;10.20;101501.00;;;;4948954;28;20238;-70
2022/05/05 06:04:37;;;;;;;12.83;5.73;;;;;10.30;101502.00;;;;4940792;28;20695;-71
2022/05/05 06:07:24;;;;;;;12.97;5.23;;;;;10.40;101508.00;;;;4948783;28;20228;-71
2022/05/05 06:10:10;;;;;;;11.47;5.90;;;;;10.60;101503.00;;;;4948665;28;20241;-70
2022/05/05 06:12:57;;;;;;;13.73;5.30;;;;;10.60;101513.00;;;;4948708;28;20285;-71
2022/05/05 06:15:43;;;;;;;9.33;5.43;;;;;10.70;101518.00;;;;4929344;28;20231;-71
2022/05/05 06:18:30;;;;;;;8.70;5.50;;;;;10.90;101517.00;;;;4939546;28;20671;-70
2022/05/05 06:21:16;;;;;;;11.13;5.70;;;;;11.00;101525.00;;;;4948668;28;20236;-71
2022/05/05 06:24:09;;;;;;;11.90;5.27;;;;;11.00;101520.00;;;;4943003;28;20280;-68
2022/05/05 06:26:55;;;;;;;8.30;5.13;;;;;11.20;101530.00;;;;4935175;28;20318;-69
2022/05/05 06:29:41;;;;;;;11.97;5.60;;;;;11.50;101527.00;;;;4941346;28;20332;-70
2022/05/05 06:32:27;;;;;;;16.73;6.23;;;;;11.70;101523.00;;;;4947946;28;20307;-69
2022/05/05 06:35:14;;;;;;;11.53;6.10;;;;;11.80;101524.00;;;;4947906;28;20620;-70
2022/05/05 06:38:00;;;;;;;14.87;6.63;;;;;11.90;101526.00;;;;4947898;28;20247;-70
2022/05/05 06:40:47;;;;;;;13.17;6.57;;;;;12.20;101533.00;;;;4935688;28;20242;-70
2022/05/05 06:43:34;;;;;;;13.70;6.20;;;;;12.20;101530.00;;;;4947579;28;20228;-70
2022/05/05 06:46:20;;;;;;;11.70;6.57;;;;;12.30;101533.00;;;;4947701;28;20239;-70
2022/05/05 06:49:17;;;;;;;15.87;5.97;;;;;12.50;101536.00;;;;4939708;28;20777;-70
2022/05/05 06:52:03;;;;;;;12.37;6.17;;;;;12.80;101531.00;;;;4948000;28;20272;-70
2022/05/05 06:55:10;;;;;;;11.90;6.33;;;;;13.00;101544.00;;;;4941897;28;20323;-70
2022/05/05 06:57:57;;;;;;;12.03;5.97;;;;;13.00;101531.00;;;;4938968;28;20253;-70
2022/05/05 07:03:47;;;;;;;10.20;6.03;;;;;13.20;101547.00;;;;4936613;28;20311;-70
2022/05/05 07:06:33;;;;;;;10.83;6.23;;;;;13.40;101547.00;;;;4936065;28;20288;-70
2022/05/05 07:12:23;;;;;;;11.20;5.90;;;;;13.50;101551.00;;;;4959143;28;20231;-70
2022/05/05 07:15:12;;;;;;;10.57;5.83;;;;;13.60;101555.00;;;;4966144;28;20235;-70
2022/05/05 07:17:59;;;;;;;12.57;5.97;;;;;13.60;101553.00;;;;4966791;28;20227;-70
2022/05/05 07:20:45;;;;;;;9.03;5.63;;;;;13.60;101556.00;;;;4947916;28;20251;-70
2022/05/05 07:23:32;;;;;;;13.10;5.40;;;;;13.80;101553.00;;;;4963040;28;20848;-69
2022/05/05 07:26:18;;;;;;;9.27;5.53;;;;;13.80;101560.00;;;;4955847;28;20368;-70
2022/05/05 07:29:04;;;;;;;14.00;6.13;;;;;14.00;101558.00;;;;4966737;28;20333;-71
2022/05/05 07:31:52;;;;;;;10.73;5.67;;;;;14.10;101563.00;;;;4960609;28;20234;-70
2022/05/05 07:34:40;;;;;;;10.73;5.40;;;;;14.20;101565.00;;;;4954578;28;20235;-70
2022/05/05 07:37:26;;;;;;;12.97;5.43;;;;;14.40;101573.00;;;;4966134;28;20779;-69
2022/05/05 07:40:12;;;;;;;12.27;5.60;;;;;14.40;101575.00;;;;4966373;28;20290;-71
2022/05/05 07:42:59;;;;;;;8.53;5.07;;;;;14.30;101576.00;;;;4961408;28;20256;-71
2022/05/05 07:45:45;;;;;;;13.20;5.27;;;;;14.40;101574.00;;;;4959145;28;20264;-70
2022/05/05 07:48:33;;;;;;;12.50;5.50;;;;;14.60;101586.00;;;;4938139;28;20323;-70
2022/05/05 07:51:19;;;;;;;9.53;5.30;;;;;14.50;101585.00;;;;4944651;28;20717;-70
2022/05/05 07:57:17;;;;;;;13.27;5.67;;;;;14.40;101597.00;;;;4943888;28;20232;-72
2022/05/05 08:00:05;;;;;;;11.67;5.60;;;;;14.40;101593.00;;;;4947001;28;20248;-70
2022/05/05 08:02:51;;;;;;;12.80;6.07;;;;;14.30;101595.00;;;;4941094;28;20299;-68
2022/05/05 08:05:39;;;;;;;8.83;5.37;;;;;14.30;101597.00;;;;4938629;28;20228;-70
2022/05/05 08:08:25;;;;;;;9.40;5.10;;;;;14.50;101599.00;;;;4938757;28;20874;-70
2022/05/05 08:11:11;;;;;;;13.37;5.47;;;;;14.60;101613.00;;;;4939319;28;20244;-70
2022/05/05 08:13:58;;;;;;;9.80;5.50;;;;;14.70;101609.00;;;;4937958;28;20342;-68
2022/05/05 08:16:45;;;;;;;9.83;5.07;;;;;14.80;101603.00;;;;4945693;28;20231;-69
2022/05/05 08:19:31;;;;;;;14.13;5.33;;;;;15.00;101615.00;;;;4950129;28;20316;-68
2022/05/05 08:22:18;;;;;;;9.00;4.83;;;;;15.20;101613.00;;;;4942752;28;20239;-70
2022/05/05 08:31:13;;;;;;;9.97;5.20;;;;;15.30;101626.00;;;;4937103;28;20235;-70
2022/05/05 08:34:00;;;;;;;9.47;5.07;;;;;15.40;101628.00;;;;4969723;28;20370;-70
2022/05/05 08:36:46;;;;;;;10.03;4.77;;;;;15.60;101621.00;;;;4962964;28;20773;-70
2022/05/05 08:39:39;;;;;;;8.73;5.13;;;;;15.70;101626.00;;;;4961697;28;20329;-69
2022/05/05 08:42:25;;;;;;;12.33;5.60;;;;;15.90;101623.00;;;;4964188;28;20322;-71
2022/05/05 08:45:12;;;;;;;8.67;5.03;;;;;16.10;101616.00;;;;4969350;28;20311;-71
2022/05/05 08:47:59;;;;;;;10.07;5.57;;;;;16.40;101617.00;;;;4950720;28;20431;-71
2022/05/05 08:50:52;;;;;;;12.83;5.50;;;;;16.60;101621.00;;;;4950471;28;20238;-71
2022/05/05 08:53:40;;;;;;;8.07;4.87;;;;;16.70;101624.00;;;;4961681;28;20231;-71
2022/05/05 08:56:28;;;;;;;10.57;5.17;;;;;16.80;101619.00;;;;4969188;28;20239;-70
2022/05/05 08:59:15;;;;;;;13.17;5.63;;;;;17.00;101616.00;;;;4963965;28;20235;-70
2022/05/05 09:02:01;;;;;;;9.27;5.47;;;;;17.30;101621.00;;;;4969503;28;20772;-71
2022/05/05 09:04:48;;;;;;;11.00;5.10;;;;;17.30;101621.00;;;;4954761;28;20726;-70
2022/05/05 09:07:49;;;;;;;13.33;5.17;;;;;17.50;101626.00;;;;4963017;28;20286;-69
2022/05/05 09:10:43;;;;;;;12.17;5.23;;;;;17.60;101623.00;;;;4960775;28;20236;-70
2022/05/05 09:13:32;;;;;;;11.23;6.00;;;;;17.50;101624.00;;;;4960530;28;20227;-70
2022/05/05 09:16:25;;;;;;;12.60;5.73;;;;;17.70;101636.00;;;;4968343;28;20239;-70
2022/05/05 09:19:12;;;;;;;12.37;6.00;;;;;18.00;101635.00;;;;4968853;28;20242;-70
2022/05/05 09:21:59;;;;;;;10.43;4.60;;;;;18.30;101630.00;;;;4963758;28;20263;-70
2022/05/05 09:24:46;;;;;;;10.77;5.50;;;;;18.80;101623.00;;;;4955563;28;20716;-70
2022/05/05 09:27:33;;;;;;;11.90;4.87;;;;;18.90;101626.00;;;;4968472;28;20239;-69
2022/05/05 09:30:21;;;;;;;6.97;4.47;;;;;18.80;101622.00;;;;4960683;28;20295;-67
2022/05/05 09:33:07;;;;;;;9.17;4.80;;;;;18.90;101602.00;;;;4964686;28;20334;-70
2022/05/05 09:35:56;;;;;;;8.83;4.37;;;;;19.00;101632.00;;;;4962752;28;20243;-70
2022/05/05 09:38:57;;;;;;;10.57;4.73;;;;;19.30;101613.00;;;;4961165;28;20231;-71
2022/05/05 09:41:45;;;;;;;9.63;4.70;;;;;19.40;101630.00;;;;4961364;28;20309;-70
2022/05/05 09:44:32;;;;;;;8.33;4.40;;;;;19.70;101630.00;;;;4948635;28;21042;-71
2022/05/05 09:47:19;;;;;;;7.87;4.20;;;;;19.80;101633.00;;;;4943308;28;20240;-69
2022/05/05 09:50:06;;;;;;;7.80;4.23;;;;;19.80;101642.00;;;;4949035;28;20772;-71
2022/05/05 09:59:07;;;;;;;6.30;4.20;;;;;19.70;101636.00;;;;4963579;28;20768;-71
2022/05/05 10:01:56;;;;;;;9.97;3.80;;;;;20.00;101628.00;;;;4962520;28;20263;-71
2022/05/05 10:04:49;;;;;;;8.50;3.70;;;;;19.90;101633.00;;;;4960523;28;20223;-71
2022/05/05 10:07:39;;;;;;;7.07;3.97;;;;;20.00;101631.00;;;;4967482;28;20235;-72
2022/05/05 10:10:26;;;;;;;7.43;3.33;;;;;20.30;101649.00;;;;4967962;28;20239;-71
2022/05/05 10:13:13;;;;;;;6.23;3.67;;;;;20.10;101643.00;;;;4962541;28;20312;-71
2022/05/05 10:16:00;;;;;;;7.13;4.20;;;;;20.00;101644.00;;;;4951743;28;20292;-71
2022/05/05 10:18:47;;;;;;;5.73;3.47;;;;;19.40;101629.00;;;;4947827;28;20790;-71
2022/05/05 10:21:49;;;;;;;7.73;4.37;;;;;19.80;101644.00;;;;4948047;28;20915;-70
2022/05/05 10:24:42;;;;;;;6.70;4.67;;;;;20.40;101635.00;;;;4947606;28;20234;-70
2022/05/05 10:27:29;;;;;;;6.40;3.60;;;;;20.90;101630.00;;;;4940053;28;20233;-70
2022/05/05 10:30:16;;;;;;;6.40;3.73;;;;;20.90;101634.00;;;;4942600;28;20245;-70
2022/05/05 10:33:03;;;;;;;7.97;4.00;;;;;21.20;101634.00;;;;4948346;28;20233;-72
2022/05/05 10:35:50;;;;;;;5.97;3.80;;;;;21.10;101629.00;;;;4940736;28;20253;-70
2022/05/05 10:38:41;;;;;;;6.37;4.07;;;;;20.80;101634.00;;;;4948076;28;20237;-68
2022/05/05 10:41:39;;;;;;;7.37;3.90;;;;;20.60;101629.00;;;;4947833;28;20233;-71
2022/05/05 10:44:26;;;;;;;8.70;3.80;;;;;21.00;101635.00;;;;4947840;28;20249;-69
2022/05/05 10:47:14;;;;;;;5.63;3.40;;;;;21.30;101641.00;;;;4946405;28;20277;-70
2022/05/05 10:50:00;;;;;;;10.90;4.37;;;;;21.30;101634.00;;;;4945247;28;20310;-70
2022/05/05 10:52:51;;;;;;;7.37;4.03;;;;;21.20;101637.00;;;;4948063;28;20299;-71
2022/05/05 10:55:46;;;;;;;7.23;3.73;;;;;20.90;101638.00;;;;4944009;28;20742;-68
2022/05/05 10:59:05;;;;;;;8.83;4.00;;;;;20.20;101632.00;;;;4941063;28;20234;-68
2022/05/05 11:01:59;;;;;;;8.97;3.67;;;;;19.80;101632.00;;;;4948141;28;20245;-70
2022/05/05 11:04:46;;;;;;;7.33;4.27;;;;;19.60;101635.00;;;;4959464;28;20243;-71
2022/05/05 11:07:35;;;;;;;6.67;3.70;;;;;19.70;101631.00;;;;4956030;28;20597;-70
2022/05/05 11:10:46;;;;;;;8.03;4.30;;;;;19.70;101627.00;;;;4964749;28;20296;-71
2022/05/05 11:13:37;;;;;;;9.43;4.30;;;;;19.90;101633.00;;;;4966408;28;20288;-69
2022/05/05 11:22:49;;;;;;;8.67;3.63;;;;;20.20;101641.00;;;;4955548;28;20240;-70
2022/05/05 11:25:41;;;;;;;6.30;3.77;;;;;20.80;101640.00;;;;4965597;28;20233;-71
2022/05/05 11:28:31;;;;;;;8.23;4.13;;;;;21.10;101642.00;;;;4966643;28;20239;-70
2022/05/05 11:31:20;;;;;;;7.63;3.97;;;;;21.20;101639.00;;;;4966956;28;20790;-71
2022/05/05 11:34:06;;;;;;;9.87;4.37;;;;;20.80;101643.00;;;;4963315;28;20231;-70
2022/05/05 11:36:52;;;;;;;9.60;3.57;;;;;20.30;101649.00;;;;4966848;28;20241;-70
2022/05/05 11:39:39;;;;;;;5.93;3.90;;;;;20.10;101646.00;;;;4966517;28;20234;-70
2022/05/05 11:42:27;;;;;;;8.33;4.10;;;;;19.70;101649.00;;;;4966693;28;20827;-70
2022/05/05 11:45:15;;;;;;;8.87;4.30;;;;;19.30;101647.00;;;;4966408;28;20751;-70
2022/05/05 11:48:15;;;;;;;9.93;4.40;;;;;19.30;101653.00;;;;4966042;28;20231;-70
2022/05/05 11:51:25;;;;;;;8.27;3.57;;;;;19.50;101650.00;;;;4958371;28;20719;-69
2022/05/05 11:54:14;;;;;;;7.23;3.93;;;;;20.30;101651.00;;;;4966224;28;20244;-69
2022/05/05 11:57:02;;;;;;;6.53;3.50;;;;;21.10;101652.00;;;;4961927;28;20753;-71
2022/05/05 12:02:54;;;;;;;7.23;3.90;;;;;21.70;101634.00;;;;4954993;28;20889;-69
2022/05/05 12:05:41;;;;;;;7.47;3.73;;;;;22.00;101631.00;;;;4958012;28;20744;-71
2022/05/05 12:08:28;;;;;;;10.97;4.97;;;;;22.30;101632.00;;;;4965619;28;20313;-71
2022/05/05 12:11:15;;;;;;;15.53;4.57;;;;;22.40;101633.00;;;;4966152;28;20308;-68
2022/05/05 12:14:03;;;;;;;6.00;3.70;;;;;21.70;101633.00;;;;4963374;28;20859;-71
2022/05/05 12:16:51;;;;;;;7.27;4.33;;;;;21.10;101621.00;;;;4959319;28;20611;-70
2022/05/05 12:19:50;;;;;;;9.93;4.07;;;;;20.60;101623.00;;;;4934278;28;20864;-71
2022/05/05 12:22:38;;;;;;;6.83;3.70;;;;;20.40;101631.00;;;;4962486;28;20738;-71
2022/05/05 12:25:25;;;;;;;7.40;3.90;;;;;20.20;101632.00;;;;4949416;28;20304;-71
2022/05/05 12:28:12;;;;;;;7.00;2.93;;;;;20.30;101630.00;;;;4966228;28;20240;-71
2022/05/05 12:30:58;;;;;;;4.77;3.30;;;;;20.50;101630.00;;;;4952916;28;20248;-71
2022/05/05 12:33:45;;;;;;;4.60;3.10;;;;;20.90;101633.00;;;;4939244;28;20226;-71
2022/05/05 12:36:32;;;;;;;6.53;3.40;;;;;20.90;101634.00;;;;4945973;28;20258;-70
2022/05/05 12:39:19;;;;;;;5.50;3.40;;;;;21.00;101641.00;;;;4946653;28;20243;-70
2022/05/05 12:42:06;;;;;;;6.47;3.70;;;;;20.80;101636.00;;;;4946576;28;20374;-70
2022/05/05 12:44:52;;;;;;;5.53;3.83;;;;;20.90;101629.00;;;;4940300;28;20267;-69
2022/05/05 12:47:43;;;;;;;6.87;3.93;;;;;20.80;101633.00;;;;4938250;28;20616;-70
2022/05/05 12:50:32;;;;;;;8.37;3.80;;;;;20.80;101639.00;;;;4946324;28;20247;-69
2022/05/05 12:59:40;;;;;;;4.27;2.93;;;;;21.30;101633.00;;;;4964700;28;20773;-70
2022/05/05 13:02:27;;;;;;;6.33;3.23;;;;;21.10;101641.00;;;;4967653;28;20297;-69
2022/05/05 13:05:14;;;;;;;7.97;3.47;;;;;21.00;101636.00;;;;4960765;28;20245;-70
2022/05/05 13:08:00;;;;;;;6.50;3.40;;;;;20.80;101637.00;;;;4949797;28;20230;-70
2022/05/05 13:10:48;;;;;;;5.53;3.50;;;;;20.90;101644.00;;;;4962040;28;20713;-69
2022/05/05 13:13:34;;;;;;;5.13;3.13;;;;;20.80;101640.00;;;;4960922;28;20235;-70
2022/05/05 13:16:21;;;;;;;5.33;2.77;;;;;21.00;101643.00;;;;4960483;28;20239;-69
2022/05/05 13:19:09;;;;;;;4.80;3.10;;;;;20.80;101645.00;;;;4966534;28;20362;-70
2022/05/05 13:21:56;;;;;;;7.43;3.37;;;;;21.50;101639.00;;;;4965528;28;20905;-71
2022/05/05 13:24:42;;;;;;;6.57;3.30;;;;;22.10;101638.00;;;;4960865;28;20771;-70
2022/05/05 13:27:30;;;;;;;5.83;3.70;;;;;22.70;101638.00;;;;4968612;28;20233;-71
2022/05/05 13:30:16;;;;;;;3.60;2.80;;;;;22.40;101632.00;;;;4968479;28;20237;-71
2022/05/05 13:33:03;;;;;;;5.57;3.50;;;;;21.90;101629.00;;;;4963334;28;20720;-70
2022/05/05 13:35:49;;;;;;;5.80;3.07;;;;;21.50;101635.00;;;;4961694;28;20292;-69
2022/05/05 13:38:35;;;;;;;5.83;3.10;;;;;21.10;101645.00;;;;4968503;28;21078;-70
2022/05/05 13:41:41;;;;;;;9.07;3.27;;;;;21.20;101641.00;;;;4931670;28;20718;-69
2022/05/05 13:44:29;;;;;;;7.43;3.27;;;;;20.80;101646.00;;;;4966119;28;20726;-69
2022/05/05 13:47:16;;;;;;;9.07;3.47;;;;;20.60;101643.00;;;;4968258;28;20628;-68
2022/05/05 13:50:03;;;;;;;6.43;3.50;;;;;20.40;101629.00;;;;4968671;28;20296;-70
2022/05/05 13:52:50;;;;;;;5.20;3.23;;;;;20.50;101646.00;;;;4961965;28;20303;-69
2022/05/05 13:55:36;;;;;;;7.13;3.53;;;;;20.10;101645.00;;;;4967804;28;20240;-69
2022/05/05 13:58:24;;;;;;;5.03;3.00;;;;;20.10;101646.00;;;;4968535;28;20759;-69
2022/05/05 14:01:11;;;;;;;5.50;2.93;;;;;20.10;101653.00;;;;4962822;28;20325;-69
2022/05/05 14:04:03;;;;;;;4.63;2.60;;;;;20.30;101640.00;;;;4963504;28;20241;-71
2022/05/05 14:06:49;;;;;;;5.17;2.90;;;;;20.60;101649.00;;;;4961476;28;20774;-71
2022/05/05 14:12:47;;;;;;;6.50;3.40;;;;;20.50;101645.00;;;;4961430;28;20240;-70
2022/05/05 14:15:34;;;;;;;10.47;3.97;;;;;20.50;101649.00;;;;4964862;28;20286;-72
2022/05/05 14:18:23;;;;;;;5.60;3.40;;;;;20.40;101650.00;;;;4967553;28;20303;-69
2022/05/05 14:21:09;;;;;;;8.17;3.70;;;;;20.50;101655.00;;;;4967818;28;20732;-68
2022/05/05 14:23:56;;;;;;;6.50;3.37;;;;;20.40;101655.00;;;;4962242;28;20253;-70
2022/05/05 14:26:42;;;;;;;4.80;3.23;;;;;20.40;101654.00;;;;4959699;28;20822;-69
2022/05/05 14:29:28;;;;;;;5.93;3.50;;;;;20.50;101650.00;;;;4965929;28;20381;-70
2022/05/05 14:32:15;;;;;;;7.43;3.30;;;;;20.50;101662.00;;;;4967805;28;20766;-70
2022/05/05 14:35:03;;;;;;;5.73;3.10;;;;;20.40;101657.00;;;;4966867;28;20238;-70
2022/05/05 14:37:49;;;;;;;5.70;3.30;;;;;20.50;101656.00;;;;4963423;28;20235;-70
2022/05/05 14:40:36;;;;;;;6.03;2.90;;;;;20.50;101659.00;;;;4967467;28;20289;-69
2022/05/05 14:43:22;;;;;;;5.27;2.87;;;;;20.60;101658.00;;;;4967359;28;20240;-71